sensor_id;sensor_type;location;lat;lon;timestamp;P1;durP1;ratioP1;P2;durP2;ratioP2
28547;SDS011;15750;49.600;8.746;2022-08-19T00:01:21;15.35;;;13.73;;
28547;SDS011;15750;49.600;8.746;2022-08-19T00:04:16;14.93;;;13.63;;
28547;SDS011;15750;49.600;8.746;2022-08-19T00:07:06;14.73;;;13.60;;
28547;SDS011;15750;49.600;8.746;2022-08-19T00:09:53;14.68;;;13.50;;
28547;SDS011;15750;49.600;8.746;2022-08-19T00:12:41;14.25;;;13.15;;
28547;SDS011;15750;49.600;8.746;2022-08-19T00:15:33;15.20;;;13.95;;
28547;SDS011;15750;49.600;8.746;2022-08-19T00:18:22;14.70;;;13.55;;
28547;SDS011;15750;49.600;8.746;2022-08-19T00:21:09;15.10;;;13.93;;
28547;SDS011;15750;49.600;8.746;2022-08-19T00:23:57;14.43;;;13.23;;
28547;SDS011;15750;49.600;8.746;2022-08-19T00:26:45;14.00;;;12.85;;
28547;SDS011;15750;49.600;8.746;2022-08-19T00:29:32;13.82;;;12.70;;
28547;SDS011;15750;49.600;8.746;2022-08-19T00:32:20;14.13;;;13.02;;
28547;SDS011;15750;49.600;8.746;2022-08-19T00:35:09;14.00;;;12.85;;
28547;SDS011;15750;49.600;8.746;2022-08-19T00:37:56;14.38;;;13.15;;
28547;SDS011;15750;49.600;8.746;2022-08-19T00:40:44;14.77;;;13.57;;
28547;SDS011;15750;49.600;8.746;2022-08-19T00:43:32;16.77;;;15.18;;
28547;SDS011;15750;49.600;8.746;2022-08-19T00:46:20;14.63;;;13.43;;
28547;SDS011;15750;49.600;8.746;2022-08-19T00:49:09;14.60;;;13.48;;
28547;SDS011;15750;49.600;8.746;2022-08-19T00:52:04;15.90;;;14.60;;
28547;SDS011;15750;49.600;8.746;2022-08-19T00:54:55;17.65;;;16.15;;
28547;SDS011;15750;49.600;8.746;2022-08-19T00:57:46;16.27;;;14.77;;
28547;SDS011;15750;49.600;8.746;2022-08-19T01:00:40;17.30;;;15.80;;
28547;SDS011;15750;49.600;8.746;2022-08-19T01:03:28;17.10;;;15.55;;
28547;SDS011;15750;49.600;8.746;2022-08-19T01:06:35;17.00;;;14.55;;
28547;SDS011;15750;49.600;8.746;2022-08-19T01:09:26;15.10;;;13.77;;
28547;SDS011;15750;49.600;8.746;2022-08-19T01:12:13;14.80;;;13.65;;
28547;SDS011;15750;49.600;8.746;2022-08-19T01:15:02;14.55;;;13.25;;
28547;SDS011;15750;49.600;8.746;2022-08-19T01:17:50;14.50;;;13.30;;
28547;SDS011;15750;49.600;8.746;2022-08-19T01:20:39;15.60;;;14.30;;
28547;SDS011;15750;49.600;8.746;2022-08-19T01:23:30;15.02;;;13.82;;
28547;SDS011;15750;49.600;8.746;2022-08-19T01:26:28;14.50;;;13.30;;
28547;SDS011;15750;49.600;8.746;2022-08-19T01:29:16;15.75;;;14.38;;
28547;SDS011;15750;49.600;8.746;2022-08-19T01:32:05;16.90;;;15.32;;
28547;SDS011;15750;49.600;8.746;2022-08-19T01:35:14;16.08;;;14.68;;
28547;SDS011;15750;49.600;8.746;2022-08-19T01:38:04;15.60;;;13.98;;
28547;SDS011;15750;49.600;8.746;2022-08-19T01:40:58;14.77;;;13.63;;
28547;SDS011;15750;49.600;8.746;2022-08-19T01:43:53;15.77;;;14.38;;
28547;SDS011;15750;49.600;8.746;2022-08-19T01:47:01;14.73;;;13.43;;
28547;SDS011;15750;49.600;8.746;2022-08-19T01:49:49;14.35;;;13.15;;
28547;SDS011;15750;49.600;8.746;2022-08-19T01:52:36;14.57;;;13.45;;
28547;SDS011;15750;49.600;8.746;2022-08-19T01:55:24;15.18;;;13.77;;
28547;SDS011;15750;49.600;8.746;2022-08-19T01:58:14;16.13;;;14.73;;
28547;SDS011;15750;49.600;8.746;2022-08-19T02:01:06;14.82;;;13.60;;
28547;SDS011;15750;49.600;8.746;2022-08-19T02:03:54;13.85;;;12.73;;
28547;SDS011;15750;49.600;8.746;2022-08-19T02:06:42;15.05;;;13.80;;
28547;SDS011;15750;49.600;8.746;2022-08-19T02:09:30;15.73;;;14.30;;
28547;SDS011;15750;49.600;8.746;2022-08-19T02:12:18;16.05;;;14.55;;
28547;SDS011;15750;49.600;8.746;2022-08-19T02:15:07;15.80;;;14.48;;
28547;SDS011;15750;49.600;8.746;2022-08-19T02:17:55;15.80;;;14.40;;
28547;SDS011;15750;49.600;8.746;2022-08-19T02:20:43;15.32;;;13.98;;
28547;SDS011;15750;49.600;8.746;2022-08-19T02:23:32;16.50;;;14.85;;
28547;SDS011;15750;49.600;8.746;2022-08-19T02:26:19;15.15;;;13.88;;
28547;SDS011;15750;49.600;8.746;2022-08-19T02:29:06;16.35;;;14.95;;
28547;SDS011;15750;49.600;8.746;2022-08-19T02:31:55;15.82;;;14.48;;
28547;SDS011;15750;49.600;8.746;2022-08-19T02:34:43;15.43;;;14.13;;
28547;SDS011;15750;49.600;8.746;2022-08-19T02:37:30;16.42;;;15.05;;
28547;SDS011;15750;49.600;8.746;2022-08-19T02:40:35;16.52;;;15.13;;
28547;SDS011;15750;49.600;8.746;2022-08-19T02:43:23;16.08;;;14.68;;
28547;SDS011;15750;49.600;8.746;2022-08-19T02:46:11;16.10;;;14.68;;
28547;SDS011;15750;49.600;8.746;2022-08-19T02:49:05;16.52;;;15.13;;
28547;SDS011;15750;49.600;8.746;2022-08-19T02:51:54;16.27;;;14.98;;
28547;SDS011;15750;49.600;8.746;2022-08-19T02:54:41;15.98;;;14.55;;
28547;SDS011;15750;49.600;8.746;2022-08-19T02:57:29;16.58;;;15.10;;
28547;SDS011;15750;49.600;8.746;2022-08-19T03:00:17;16.52;;;14.90;;
28547;SDS011;15750;49.600;8.746;2022-08-19T03:03:05;16.67;;;15.18;;
28547;SDS011;15750;49.600;8.746;2022-08-19T03:06:03;16.60;;;15.30;;
28547;SDS011;15750;49.600;8.746;2022-08-19T03:08:57;16.08;;;14.70;;
28547;SDS011;15750;49.600;8.746;2022-08-19T03:11:44;16.52;;;14.82;;
28547;SDS011;15750;49.600;8.746;2022-08-19T03:14:33;15.05;;;13.80;;
28547;SDS011;15750;49.600;8.746;2022-08-19T03:17:22;14.63;;;13.38;;
28547;SDS011;15750;49.600;8.746;2022-08-19T03:20:10;14.93;;;13.63;;
28547;SDS011;15750;49.600;8.746;2022-08-19T03:22:58;16.00;;;14.60;;
28547;SDS011;15750;49.600;8.746;2022-08-19T03:25:46;15.98;;;14.55;;
28547;SDS011;15750;49.600;8.746;2022-08-19T03:28:55;16.27;;;14.60;;
28547;SDS011;15750;49.600;8.746;2022-08-19T03:31:49;16.15;;;14.75;;
28547;SDS011;15750;49.600;8.746;2022-08-19T03:34:37;15.68;;;14.05;;
28547;SDS011;15750;49.600;8.746;2022-08-19T03:37:25;15.80;;;14.27;;
28547;SDS011;15750;49.600;8.746;2022-08-19T03:40:14;17.42;;;15.93;;
28547;SDS011;15750;49.600;8.746;2022-08-19T03:43:04;17.40;;;15.70;;
28547;SDS011;15750;49.600;8.746;2022-08-19T03:45:59;16.13;;;14.80;;
28547;SDS011;15750;49.600;8.746;2022-08-19T03:48:50;17.20;;;15.68;;
28547;SDS011;15750;49.600;8.746;2022-08-19T03:51:40;16.92;;;15.45;;
28547;SDS011;15750;49.600;8.746;2022-08-19T03:54:29;17.10;;;15.60;;
28547;SDS011;15750;49.600;8.746;2022-08-19T03:57:18;15.80;;;14.38;;
28547;SDS011;15750;49.600;8.746;2022-08-19T04:00:15;16.45;;;14.95;;
28547;SDS011;15750;49.600;8.746;2022-08-19T04:03:03;16.85;;;15.38;;
28547;SDS011;15750;49.600;8.746;2022-08-19T04:05:51;16.50;;;14.82;;
28547;SDS011;15750;49.600;8.746;2022-08-19T04:08:38;16.50;;;14.85;;
28547;SDS011;15750;49.600;8.746;2022-08-19T04:11:27;15.52;;;14.23;;
28547;SDS011;15750;49.600;8.746;2022-08-19T04:14:30;15.98;;;14.60;;
28547;SDS011;15750;49.600;8.746;2022-08-19T04:17:19;16.42;;;14.88;;
28547;SDS011;15750;49.600;8.746;2022-08-19T04:20:07;16.75;;;15.18;;
28547;SDS011;15750;49.600;8.746;2022-08-19T04:22:56;15.50;;;14.20;;
28547;SDS011;15750;49.600;8.746;2022-08-19T04:25:43;16.00;;;14.68;;
28547;SDS011;15750;49.600;8.746;2022-08-19T04:28:31;16.35;;;14.95;;
28547;SDS011;15750;49.600;8.746;2022-08-19T04:31:21;16.42;;;14.93;;
28547;SDS011;15750;49.600;8.746;2022-08-19T04:34:12;16.10;;;14.60;;
28547;SDS011;15750;49.600;8.746;2022-08-19T04:37:04;16.85;;;15.35;;
28547;SDS011;15750;49.600;8.746;2022-08-19T04:39:56;16.55;;;15.05;;
28547;SDS011;15750;49.600;8.746;2022-08-19T04:43:01;16.30;;;14.80;;
28547;SDS011;15750;49.600;8.746;2022-08-19T04:45:48;17.13;;;15.52;;
28547;SDS011;15750;49.600;8.746;2022-08-19T04:48:42;16.58;;;14.98;;
28547;SDS011;15750;49.600;8.746;2022-08-19T04:51:34;16.83;;;15.35;;
28547;SDS011;15750;49.600;8.746;2022-08-19T04:54:23;17.20;;;15.70;;
28547;SDS011;15750;49.600;8.746;2022-08-19T04:57:23;16.00;;;14.40;;
28547;SDS011;15750;49.600;8.746;2022-08-19T05:00:11;16.55;;;15.15;;
28547;SDS011;15750;49.600;8.746;2022-08-19T05:02:59;15.85;;;14.45;;
28547;SDS011;15750;49.600;8.746;2022-08-19T05:05:53;17.45;;;15.95;;
28547;SDS011;15750;49.600;8.746;2022-08-19T05:08:40;16.60;;;15.10;;
28547;SDS011;15750;49.600;8.746;2022-08-19T05:11:30;17.38;;;15.65;;
28547;SDS011;15750;49.600;8.746;2022-08-19T05:14:24;15.35;;;14.05;;
28547;SDS011;15750;49.600;8.746;2022-08-19T05:17:11;15.45;;;14.15;;
28547;SDS011;15750;49.600;8.746;2022-08-19T05:20:19;15.80;;;14.18;;
28547;SDS011;15750;49.600;8.746;2022-08-19T05:23:25;14.82;;;13.52;;
28547;SDS011;15750;49.600;8.746;2022-08-19T05:26:12;16.55;;;15.02;;
28547;SDS011;15750;49.600;8.746;2022-08-19T05:28:59;15.20;;;13.80;;
28547;SDS011;15750;49.600;8.746;2022-08-19T05:31:48;17.92;;;16.13;;
28547;SDS011;15750;49.600;8.746;2022-08-19T05:34:35;16.45;;;14.73;;
28547;SDS011;15750;49.600;8.746;2022-08-19T05:37:24;16.75;;;15.15;;
28547;SDS011;15750;49.600;8.746;2022-08-19T05:40:14;16.27;;;13.85;;
28547;SDS011;15750;49.600;8.746;2022-08-19T05:43:02;16.85;;;15.35;;
28547;SDS011;15750;49.600;8.746;2022-08-19T05:45:50;16.52;;;15.02;;
28547;SDS011;15750;49.600;8.746;2022-08-19T05:48:37;16.83;;;15.23;;
28547;SDS011;15750;49.600;8.746;2022-08-19T05:51:25;18.02;;;16.13;;
28547;SDS011;15750;49.600;8.746;2022-08-19T05:54:13;17.17;;;15.48;;
28547;SDS011;15750;49.600;8.746;2022-08-19T05:57:02;16.83;;;15.30;;
28547;SDS011;15750;49.600;8.746;2022-08-19T05:59:50;16.80;;;15.30;;
28547;SDS011;15750;49.600;8.746;2022-08-19T06:02:43;17.42;;;14.13;;
28547;SDS011;15750;49.600;8.746;2022-08-19T06:05:30;16.38;;;14.95;;
28547;SDS011;15750;49.600;8.746;2022-08-19T06:08:33;16.58;;;14.85;;
28547;SDS011;15750;49.600;8.746;2022-08-19T06:11:22;16.38;;;14.98;;
28547;SDS011;15750;49.600;8.746;2022-08-19T06:14:23;16.63;;;15.13;;
28547;SDS011;15750;49.600;8.746;2022-08-19T06:17:13;17.35;;;15.80;;
28547;SDS011;15750;49.600;8.746;2022-08-19T06:20:03;16.23;;;14.70;;
28547;SDS011;15750;49.600;8.746;2022-08-19T06:22:52;15.15;;;13.85;;
28547;SDS011;15750;49.600;8.746;2022-08-19T06:25:39;15.80;;;14.50;;
28547;SDS011;15750;49.600;8.746;2022-08-19T06:28:27;16.27;;;14.77;;
28547;SDS011;15750;49.600;8.746;2022-08-19T06:31:16;15.77;;;14.38;;
28547;SDS011;15750;49.600;8.746;2022-08-19T06:34:06;15.52;;;14.13;;
28547;SDS011;15750;49.600;8.746;2022-08-19T06:36:55;15.30;;;13.88;;
28547;SDS011;15750;49.600;8.746;2022-08-19T06:39:46;15.60;;;14.10;;
28547;SDS011;15750;49.600;8.746;2022-08-19T06:42:34;15.27;;;13.77;;
28547;SDS011;15750;49.600;8.746;2022-08-19T06:45:28;14.20;;;12.95;;
28547;SDS011;15750;49.600;8.746;2022-08-19T06:48:20;13.88;;;12.57;;
28547;SDS011;15750;49.600;8.746;2022-08-19T06:51:10;13.15;;;11.85;;
28547;SDS011;15750;49.600;8.746;2022-08-19T06:54:03;14.80;;;13.38;;
28547;SDS011;15750;49.600;8.746;2022-08-19T06:57:03;14.45;;;13.15;;
28547;SDS011;15750;49.600;8.746;2022-08-19T06:59:52;16.17;;;12.77;;
28547;SDS011;15750;49.600;8.746;2022-08-19T07:02:41;14.18;;;12.98;;
28547;SDS011;15750;49.600;8.746;2022-08-19T07:05:41;14.02;;;12.57;;
28547;SDS011;15750;49.600;8.746;2022-08-19T07:08:30;13.60;;;12.40;;
28547;SDS011;15750;49.600;8.746;2022-08-19T07:11:18;12.35;;;11.15;;
28547;SDS011;15750;49.600;8.746;2022-08-19T07:14:08;12.77;;;11.57;;
28547;SDS011;15750;49.600;8.746;2022-08-19T07:17:04;12.50;;;11.30;;
28547;SDS011;15750;49.600;8.746;2022-08-19T07:19:55;13.02;;;11.50;;
28547;SDS011;15750;49.600;8.746;2022-08-19T07:22:51;12.13;;;11.02;;
28547;SDS011;15750;49.600;8.746;2022-08-19T07:25:39;12.73;;;11.52;;
28547;SDS011;15750;49.600;8.746;2022-08-19T07:28:27;12.98;;;11.77;;
28547;SDS011;15750;49.600;8.746;2022-08-19T07:31:16;12.38;;;11.18;;
28547;SDS011;15750;49.600;8.746;2022-08-19T07:34:08;12.85;;;10.38;;
28547;SDS011;15750;49.600;8.746;2022-08-19T07:37:00;11.32;;;10.25;;
28547;SDS011;15750;49.600;8.746;2022-08-19T07:39:50;10.48;;;9.48;;
28547;SDS011;15750;49.600;8.746;2022-08-19T07:42:37;11.30;;;10.23;;
28547;SDS011;15750;49.600;8.746;2022-08-19T07:45:24;11.20;;;9.93;;
28547;SDS011;15750;49.600;8.746;2022-08-19T07:48:12;9.48;;;8.65;;
28547;SDS011;15750;49.600;8.746;2022-08-19T07:51:00;10.68;;;9.68;;
28547;SDS011;15750;49.600;8.746;2022-08-19T07:53:50;10.10;;;9.25;;
28547;SDS011;15750;49.600;8.746;2022-08-19T07:56:39;10.88;;;9.88;;
28547;SDS011;15750;49.600;8.746;2022-08-19T07:59:27;10.05;;;9.00;;
28547;SDS011;15750;49.600;8.746;2022-08-19T08:02:15;9.60;;;8.88;;
28547;SDS011;15750;49.600;8.746;2022-08-19T08:05:03;9.27;;;8.48;;
28547;SDS011;15750;49.600;8.746;2022-08-19T08:08:08;8.85;;;8.13;;
28547;SDS011;15750;49.600;8.746;2022-08-19T08:11:28;9.32;;;8.50;;
28547;SDS011;15750;49.600;8.746;2022-08-19T08:14:18;10.43;;;9.48;;
28547;SDS011;15750;49.600;8.746;2022-08-19T08:17:14;10.05;;;9.05;;
28547;SDS011;15750;49.600;8.746;2022-08-19T08:20:23;8.88;;;7.97;;
28547;SDS011;15750;49.600;8.746;2022-08-19T08:23:11;9.48;;;8.68;;
28547;SDS011;15750;49.600;8.746;2022-08-19T08:26:11;9.73;;;8.73;;
28547;SDS011;15750;49.600;8.746;2022-08-19T08:29:00;9.77;;;8.85;;
28547;SDS011;15750;49.600;8.746;2022-08-19T08:31:58;9.93;;;8.95;;
28547;SDS011;15750;49.600;8.746;2022-08-19T08:34:45;9.05;;;8.25;;
28547;SDS011;15750;49.600;8.746;2022-08-19T08:37:36;9.82;;;8.85;;
28547;SDS011;15750;49.600;8.746;2022-08-19T08:40:27;9.55;;;8.57;;
28547;SDS011;15750;49.600;8.746;2022-08-19T08:43:22;8.15;;;7.35;;
28547;SDS011;15750;49.600;8.746;2022-08-19T08:46:17;10.18;;;8.48;;
28547;SDS011;15750;49.600;8.746;2022-08-19T08:49:20;9.77;;;8.82;;
28547;SDS011;15750;49.600;8.746;2022-08-19T08:52:17;8.18;;;7.38;;
28547;SDS011;15750;49.600;8.746;2022-08-19T08:55:18;8.05;;;7.45;;
28547;SDS011;15750;49.600;8.746;2022-08-19T08:58:10;11.30;;;8.57;;
28547;SDS011;15750;49.600;8.746;2022-08-19T09:01:02;8.90;;;8.05;;
28547;SDS011;15750;49.600;8.746;2022-08-19T09:03:49;8.25;;;7.45;;
28547;SDS011;15750;49.600;8.746;2022-08-19T09:06:40;9.30;;;7.05;;
28547;SDS011;15750;49.600;8.746;2022-08-19T09:09:39;7.80;;;7.00;;
28547;SDS011;15750;49.600;8.746;2022-08-19T09:12:31;7.95;;;7.15;;
28547;SDS011;15750;49.600;8.746;2022-08-19T09:15:28;7.32;;;6.72;;
28547;SDS011;15750;49.600;8.746;2022-08-19T09:18:21;6.40;;;5.95;;
28547;SDS011;15750;49.600;8.746;2022-08-19T09:21:08;6.88;;;6.05;;
28547;SDS011;15750;49.600;8.746;2022-08-19T09:23:57;6.22;;;5.78;;
28547;SDS011;15750;49.600;8.746;2022-08-19T09:26:47;7.15;;;6.50;;
28547;SDS011;15750;49.600;8.746;2022-08-19T09:29:36;7.50;;;6.80;;
28547;SDS011;15750;49.600;8.746;2022-08-19T09:32:24;7.75;;;7.05;;
28547;SDS011;15750;49.600;8.746;2022-08-19T09:35:12;6.88;;;6.22;;
28547;SDS011;15750;49.600;8.746;2022-08-19T09:38:00;7.10;;;6.45;;
28547;SDS011;15750;49.600;8.746;2022-08-19T09:40:49;6.47;;;5.88;;
28547;SDS011;15750;49.600;8.746;2022-08-19T09:43:37;7.72;;;7.00;;
28547;SDS011;15750;49.600;8.746;2022-08-19T09:46:29;6.93;;;6.32;;
28547;SDS011;15750;49.600;8.746;2022-08-19T09:49:17;7.95;;;7.15;;
28547;SDS011;15750;49.600;8.746;2022-08-19T09:52:08;7.22;;;6.68;;
28547;SDS011;15750;49.600;8.746;2022-08-19T09:54:57;8.93;;;6.85;;
28547;SDS011;15750;49.600;8.746;2022-08-19T09:57:54;8.27;;;6.63;;
28547;SDS011;15750;49.600;8.746;2022-08-19T10:00:41;7.38;;;6.78;;
28547;SDS011;15750;49.600;8.746;2022-08-19T10:03:35;7.00;;;6.45;;
28547;SDS011;15750;49.600;8.746;2022-08-19T10:06:24;6.82;;;6.22;;
28547;SDS011;15750;49.600;8.746;2022-08-19T10:09:30;8.05;;;6.78;;
28547;SDS011;15750;49.600;8.746;2022-08-19T10:12:19;7.30;;;6.60;;
28547;SDS011;15750;49.600;8.746;2022-08-19T10:15:12;7.32;;;6.55;;
28547;SDS011;15750;49.600;8.746;2022-08-19T10:18:00;6.22;;;5.72;;
28547;SDS011;15750;49.600;8.746;2022-08-19T10:20:49;5.45;;;5.05;;
28547;SDS011;15750;49.600;8.746;2022-08-19T10:23:41;6.10;;;5.55;;
28547;SDS011;15750;49.600;8.746;2022-08-19T10:26:31;6.30;;;5.47;;
28547;SDS011;15750;49.600;8.746;2022-08-19T10:29:21;5.95;;;5.22;;
28547;SDS011;15750;49.600;8.746;2022-08-19T10:32:18;5.88;;;5.38;;
28547;SDS011;15750;49.600;8.746;2022-08-19T10:35:18;9.43;;;5.55;;
28547;SDS011;15750;49.600;8.746;2022-08-19T10:38:07;6.05;;;5.55;;
28547;SDS011;15750;49.600;8.746;2022-08-19T10:40:54;5.13;;;4.70;;
28547;SDS011;15750;49.600;8.746;2022-08-19T10:43:42;5.93;;;5.43;;
28547;SDS011;15750;49.600;8.746;2022-08-19T10:46:30;6.15;;;5.65;;
28547;SDS011;15750;49.600;8.746;2022-08-19T10:49:20;6.70;;;5.22;;
28547;SDS011;15750;49.600;8.746;2022-08-19T10:52:09;6.78;;;5.32;;
28547;SDS011;15750;49.600;8.746;2022-08-19T10:55:17;5.78;;;5.32;;
28547;SDS011;15750;49.600;8.746;2022-08-19T10:58:25;5.82;;;5.32;;
28547;SDS011;15750;49.600;8.746;2022-08-19T11:01:12;6.18;;;5.68;;
28547;SDS011;15750;49.600;8.746;2022-08-19T11:04:00;6.25;;;5.75;;
28547;SDS011;15750;49.600;8.746;2022-08-19T11:06:50;6.05;;;5.55;;
28547;SDS011;15750;49.600;8.746;2022-08-19T11:09:38;5.53;;;5.10;;
28547;SDS011;15750;49.600;8.746;2022-08-19T11:12:27;5.45;;;5.05;;
28547;SDS011;15750;49.600;8.746;2022-08-19T11:15:14;6.10;;;5.60;;
28547;SDS011;15750;49.600;8.746;2022-08-19T11:18:02;5.97;;;5.47;;
28547;SDS011;15750;49.600;8.746;2022-08-19T11:21:04;5.85;;;5.35;;
28547;SDS011;15750;49.600;8.746;2022-08-19T11:23:56;5.45;;;5.07;;
28547;SDS011;15750;49.600;8.746;2022-08-19T11:26:46;7.10;;;5.93;;
28547;SDS011;15750;49.600;8.746;2022-08-19T11:29:34;6.85;;;6.25;;
28547;SDS011;15750;49.600;8.746;2022-08-19T11:32:23;24.30;;;7.85;;
28547;SDS011;15750;49.600;8.746;2022-08-19T11:35:11;7.63;;;6.68;;
28547;SDS011;15750;49.600;8.746;2022-08-19T11:37:58;7.43;;;6.93;;
28547;SDS011;15750;49.600;8.746;2022-08-19T11:40:57;7.50;;;6.75;;
28547;SDS011;15750;49.600;8.746;2022-08-19T11:43:48;8.13;;;7.07;;
28547;SDS011;15750;49.600;8.746;2022-08-19T11:46:38;8.07;;;7.47;;
28547;SDS011;15750;49.600;8.746;2022-08-19T11:49:26;7.32;;;6.78;;
28547;SDS011;15750;49.600;8.746;2022-08-19T11:52:13;7.38;;;6.88;;
28547;SDS011;15750;49.600;8.746;2022-08-19T11:55:01;7.75;;;7.13;;
28547;SDS011;15750;49.600;8.746;2022-08-19T11:57:50;7.80;;;7.20;;
28547;SDS011;15750;49.600;8.746;2022-08-19T12:00:38;7.50;;;6.85;;
28547;SDS011;15750;49.600;8.746;2022-08-19T12:03:27;7.90;;;7.38;;
28547;SDS011;15750;49.600;8.746;2022-08-19T12:06:17;7.90;;;7.30;;
28547;SDS011;15750;49.600;8.746;2022-08-19T12:09:09;8.05;;;7.18;;
28547;SDS011;15750;49.600;8.746;2022-08-19T12:11:57;8.55;;;7.72;;
28547;SDS011;15750;49.600;8.746;2022-08-19T12:14:46;7.30;;;6.75;;
28547;SDS011;15750;49.600;8.746;2022-08-19T12:17:42;8.07;;;7.38;;
28547;SDS011;15750;49.600;8.746;2022-08-19T12:20:30;8.65;;;7.53;;
28547;SDS011;15750;49.600;8.746;2022-08-19T12:23:20;7.68;;;7.07;;
28547;SDS011;15750;49.600;8.746;2022-08-19T12:26:08;7.72;;;7.13;;
28547;SDS011;15750;49.600;8.746;2022-08-19T12:28:56;9.40;;;8.50;;
28547;SDS011;15750;49.600;8.746;2022-08-19T12:31:46;9.35;;;8.55;;
28547;SDS011;15750;49.600;8.746;2022-08-19T12:34:33;8.52;;;7.82;;
28547;SDS011;15750;49.600;8.746;2022-08-19T12:37:23;10.73;;;9.70;;
28547;SDS011;15750;49.600;8.746;2022-08-19T12:40:11;9.65;;;8.95;;
28547;SDS011;15750;49.600;8.746;2022-08-19T12:42:58;9.25;;;8.55;;
28547;SDS011;15750;49.600;8.746;2022-08-19T12:45:46;10.20;;;9.27;;
28547;SDS011;15750;49.600;8.746;2022-08-19T12:48:35;11.10;;;10.30;;
28547;SDS011;15750;49.600;8.746;2022-08-19T12:51:23;10.45;;;9.50;;
28547;SDS011;15750;49.600;8.746;2022-08-19T12:54:12;29.67;;;13.40;;
28547;SDS011;15750;49.600;8.746;2022-08-19T12:56:59;10.88;;;10.07;;
28547;SDS011;15750;49.600;8.746;2022-08-19T12:59:51;10.57;;;9.75;;
28547;SDS011;15750;49.600;8.746;2022-08-19T13:02:42;10.75;;;9.95;;
28547;SDS011;15750;49.600;8.746;2022-08-19T13:05:33;10.13;;;9.23;;
28547;SDS011;15750;49.600;8.746;2022-08-19T13:08:21;9.15;;;8.45;;
28547;SDS011;15750;49.600;8.746;2022-08-19T13:11:10;9.02;;;8.35;;
28547;SDS011;15750;49.600;8.746;2022-08-19T13:14:00;8.73;;;8.05;;
28547;SDS011;15750;49.600;8.746;2022-08-19T13:16:48;8.40;;;7.80;;
28547;SDS011;15750;49.600;8.746;2022-08-19T13:19:36;8.65;;;8.05;;
28547;SDS011;15750;49.600;8.746;2022-08-19T13:22:26;9.27;;;8.45;;
28547;SDS011;15750;49.600;8.746;2022-08-19T13:25:14;8.27;;;7.68;;
28547;SDS011;15750;49.600;8.746;2022-08-19T13:28:04;8.98;;;7.43;;
28547;SDS011;15750;49.600;8.746;2022-08-19T13:30:56;7.55;;;6.95;;
28547;SDS011;15750;49.600;8.746;2022-08-19T13:34:01;7.35;;;6.70;;
28547;SDS011;15750;49.600;8.746;2022-08-19T13:36:49;7.70;;;7.03;;
28547;SDS011;15750;49.600;8.746;2022-08-19T13:39:41;7.32;;;6.63;;
28547;SDS011;15750;49.600;8.746;2022-08-19T13:42:30;7.45;;;6.85;;
28547;SDS011;15750;49.600;8.746;2022-08-19T13:45:18;6.45;;;5.88;;
28547;SDS011;15750;49.600;8.746;2022-08-19T13:48:07;6.45;;;5.95;;
28547;SDS011;15750;49.600;8.746;2022-08-19T13:50:55;6.30;;;5.90;;
28547;SDS011;15750;49.600;8.746;2022-08-19T13:53:44;5.90;;;5.38;;
28547;SDS011;15750;49.600;8.746;2022-08-19T13:56:34;6.05;;;5.38;;
28547;SDS011;15750;49.600;8.746;2022-08-19T13:59:26;6.32;;;5.88;;
28547;SDS011;15750;49.600;8.746;2022-08-19T14:02:14;6.78;;;6.28;;
28547;SDS011;15750;49.600;8.746;2022-08-19T14:05:01;6.38;;;5.88;;
28547;SDS011;15750;49.600;8.746;2022-08-19T14:07:50;6.93;;;6.07;;
28547;SDS011;15750;49.600;8.746;2022-08-19T14:10:38;6.75;;;6.15;;
28547;SDS011;15750;49.600;8.746;2022-08-19T14:13:29;6.72;;;6.13;;
28547;SDS011;15750;49.600;8.746;2022-08-19T14:16:18;6.43;;;6.03;;
28547;SDS011;15750;49.600;8.746;2022-08-19T14:19:06;6.55;;;6.00;;
28547;SDS011;15750;49.600;8.746;2022-08-19T14:21:55;6.57;;;6.05;;
28547;SDS011;15750;49.600;8.746;2022-08-19T14:24:43;6.80;;;6.30;;
28547;SDS011;15750;49.600;8.746;2022-08-19T14:27:32;6.43;;;5.97;;
28547;SDS011;15750;49.600;8.746;2022-08-19T14:30:22;6.72;;;6.13;;
28547;SDS011;15750;49.600;8.746;2022-08-19T14:33:12;7.25;;;6.75;;
28547;SDS011;15750;49.600;8.746;2022-08-19T14:35:59;7.05;;;6.10;;
28547;SDS011;15750;49.600;8.746;2022-08-19T14:38:47;7.05;;;6.45;;
28547;SDS011;15750;49.600;8.746;2022-08-19T14:41:35;6.57;;;6.07;;
28547;SDS011;15750;49.600;8.746;2022-08-19T14:44:22;6.47;;;6.05;;
28547;SDS011;15750;49.600;8.746;2022-08-19T14:47:11;7.05;;;6.55;;
28547;SDS011;15750;49.600;8.746;2022-08-19T14:49:59;7.55;;;6.97;;
28547;SDS011;15750;49.600;8.746;2022-08-19T14:52:49;7.53;;;6.93;;
28547;SDS011;15750;49.600;8.746;2022-08-19T14:55:44;6.85;;;6.28;;
28547;SDS011;15750;49.600;8.746;2022-08-19T14:58:33;6.82;;;6.32;;
28547;SDS011;15750;49.600;8.746;2022-08-19T15:01:23;6.93;;;6.30;;
28547;SDS011;15750;49.600;8.746;2022-08-19T15:04:12;6.50;;;6.00;;
28547;SDS011;15750;49.600;8.746;2022-08-19T15:06:59;6.70;;;6.25;;
28547;SDS011;15750;49.600;8.746;2022-08-19T15:09:49;6.80;;;6.13;;
28547;SDS011;15750;49.600;8.746;2022-08-19T15:12:37;6.47;;;5.97;;
28547;SDS011;15750;49.600;8.746;2022-08-19T15:15:25;6.55;;;6.05;;
28547;SDS011;15750;49.600;8.746;2022-08-19T15:18:13;6.85;;;6.07;;
28547;SDS011;15750;49.600;8.746;2022-08-19T15:21:02;6.82;;;6.22;;
28547;SDS011;15750;49.600;8.746;2022-08-19T15:23:50;6.75;;;6.25;;
28547;SDS011;15750;49.600;8.746;2022-08-19T15:26:38;7.03;;;5.85;;
28547;SDS011;15750;49.600;8.746;2022-08-19T15:29:25;6.00;;;5.47;;
28547;SDS011;15750;49.600;8.746;2022-08-19T15:32:12;6.68;;;6.03;;
28547;SDS011;15750;49.600;8.746;2022-08-19T15:35:00;5.70;;;5.30;;
28547;SDS011;15750;49.600;8.746;2022-08-19T15:37:49;6.00;;;5.60;;
28547;SDS011;15750;49.600;8.746;2022-08-19T15:40:38;6.43;;;5.93;;
28547;SDS011;15750;49.600;8.746;2022-08-19T15:43:27;6.53;;;5.78;;
28547;SDS011;15750;49.600;8.746;2022-08-19T15:46:15;6.57;;;5.55;;
28547;SDS011;15750;49.600;8.746;2022-08-19T15:49:04;5.55;;;5.15;;
28547;SDS011;15750;49.600;8.746;2022-08-19T15:51:52;5.80;;;5.40;;
28547;SDS011;15750;49.600;8.746;2022-08-19T15:54:43;5.68;;;5.18;;
28547;SDS011;15750;49.600;8.746;2022-08-19T15:57:30;5.60;;;5.20;;
28547;SDS011;15750;49.600;8.746;2022-08-19T16:00:35;5.43;;;5.03;;
28547;SDS011;15750;49.600;8.746;2022-08-19T16:03:39;5.43;;;5.10;;
28547;SDS011;15750;49.600;8.746;2022-08-19T16:06:45;5.20;;;4.72;;
28547;SDS011;15750;49.600;8.746;2022-08-19T16:09:34;5.85;;;5.30;;
28547;SDS011;15750;49.600;8.746;2022-08-19T16:12:23;5.28;;;4.88;;
28547;SDS011;15750;49.600;8.746;2022-08-19T16:15:14;4.97;;;4.68;;
28547;SDS011;15750;49.600;8.746;2022-08-19T16:18:01;6.63;;;5.53;;
28547;SDS011;15750;49.600;8.746;2022-08-19T16:20:49;5.75;;;5.20;;
28547;SDS011;15750;49.600;8.746;2022-08-19T16:23:37;4.95;;;4.65;;
28547;SDS011;15750;49.600;8.746;2022-08-19T16:26:25;5.53;;;5.13;;
28547;SDS011;15750;49.600;8.746;2022-08-19T16:29:17;5.50;;;5.00;;
28547;SDS011;15750;49.600;8.746;2022-08-19T16:32:23;5.47;;;5.07;;
28547;SDS011;15750;49.600;8.746;2022-08-19T16:35:10;6.05;;;5.55;;
28547;SDS011;15750;49.600;8.746;2022-08-19T16:37:58;5.80;;;5.40;;
28547;SDS011;15750;49.600;8.746;2022-08-19T16:40:45;5.95;;;5.53;;
28547;SDS011;15750;49.600;8.746;2022-08-19T16:43:33;6.20;;;5.70;;
28547;SDS011;15750;49.600;8.746;2022-08-19T16:46:24;6.03;;;5.53;;
28547;SDS011;15750;49.600;8.746;2022-08-19T16:49:11;5.50;;;5.10;;
28547;SDS011;15750;49.600;8.746;2022-08-19T16:52:05;6.30;;;5.80;;
28547;SDS011;15750;49.600;8.746;2022-08-19T16:54:53;5.85;;;5.25;;